Time;durP1;ratioP1;P1;durP2;ratioP2;P2;SDS_P1;SDS_P2;PMS_P1;PMS_P2;Temp;Humidity;BMP_temperature;BMP_pressure;BME280_temperature;BME280_humidity;BME280_pressure;Samples;Min_cycle;Max_cycle;Signal;HPM_P1;HPM_P2
2022/10/25 00:00:38;;;;;;;17.48;7.10;;;12.50;99.90;;;;;;5108644;28;20035;-74
2022/10/25 00:03:14;;;;;;;19.02;7.10;;;12.50;99.90;;;;;;5105328;28;20544;-74
2022/10/25 00:05:41;;;;;;;18.75;6.90;;;12.50;99.90;;;;;;5087688;28;20046;-74
2022/10/25 00:08:09;;;;;;;18.50;7.32;;;12.50;99.90;;;;;;5090531;28;20108;-74
2022/10/25 00:10:36;;;;;;;21.23;7.50;;;12.50;99.90;;;;;;5072341;28;20092;-74
2022/10/25 00:13:02;;;;;;;18.15;7.70;;;12.40;99.90;;;;;;5105166;28;20035;-74
2022/10/25 00:15:27;;;;;;;19.45;8.40;;;12.50;99.90;;;;;;5105495;28;20093;-73
2022/10/25 00:17:53;;;;;;;19.98;8.23;;;12.50;99.90;;;;;;5069622;28;20060;-74
2022/10/25 00:20:19;;;;;;;21.83;7.97;;;12.40;99.90;;;;;;5107056;28;20512;-74
2022/10/25 00:22:45;;;;;;;20.58;8.45;;;12.40;99.90;;;;;;5070309;28;20067;-74
2022/10/25 00:25:11;;;;;;;20.08;7.90;;;12.40;99.90;;;;;;5088153;28;20176;-74
2022/10/25 00:27:37;;;;;;;22.70;8.90;;;12.40;99.90;;;;;;5089354;28;20028;-74
2022/10/25 00:30:05;;;;;;;21.15;8.55;;;12.40;99.90;;;;;;5061447;28;20076;-74
2022/10/25 00:32:32;;;;;;;18.92;8.27;;;12.40;99.90;;;;;;5011995;28;20037;-74
2022/10/25 00:34:58;;;;;;;19.40;8.23;;;12.40;99.90;;;;;;5029408;28;20041;-74
2022/10/25 00:37:24;;;;;;;16.48;8.60;;;12.40;99.90;;;;;;5036972;28;20061;-73
2022/10/25 00:39:49;;;;;;;17.77;8.38;;;12.40;99.90;;;;;;5030602;28;20068;-73
2022/10/25 00:42:25;;;;;;;19.00;9.20;;;12.30;99.90;;;;;;5000622;28;20037;-74
2022/10/25 00:44:53;;;;;;;22.80;9.20;;;12.40;99.90;;;;;;5027440;28;20052;-73
2022/10/25 00:47:18;;;;;;;22.48;9.45;;;12.30;99.90;;;;;;5014404;28;20033;-74
2022/10/25 00:50:11;;;;;;;19.98;10.07;;;12.30;99.90;;;;;;5015318;28;20048;-74
2022/10/25 00:52:38;;;;;;;22.35;9.70;;;12.40;99.90;;;;;;5002766;28;20567;-74
2022/10/25 00:55:06;;;;;;;21.58;9.50;;;12.30;99.90;;;;;;4999762;28;20037;-74
2022/10/25 00:57:37;;;;;;;19.17;9.93;;;12.40;99.90;;;;;;5040770;28;20045;-73
2022/10/25 01:00:05;;;;;;;25.95;10.57;;;12.40;99.90;;;;;;5042265;28;20499;-74
2022/10/25 01:02:31;;;;;;;23.48;10.52;;;12.40;99.90;;;;;;5026396;28;20160;-74
2022/10/25 01:04:57;;;;;;;22.52;10.48;;;12.40;99.90;;;;;;5006593;28;20073;-74
2022/10/25 01:07:23;;;;;;;26.67;10.88;;;12.40;99.90;;;;;;5018925;28;20084;-74
2022/10/25 01:09:50;;;;;;;21.15;10.85;;;12.50;99.90;;;;;;5046703;28;20529;-74
2022/10/25 01:12:16;;;;;;;21.42;10.98;;;12.50;99.90;;;;;;5017948;28;20033;-74
2022/10/25 01:14:48;;;;;;;24.02;10.63;;;12.50;99.90;;;;;;5014183;28;20040;-73
2022/10/25 01:17:37;;;;;;;24.67;11.63;;;12.50;99.90;;;;;;5037785;28;20060;-73
2022/10/25 01:20:15;;;;;;;23.30;11.07;;;12.50;99.90;;;;;;5041860;28;20045;-73
2022/10/25 01:22:43;;;;;;;22.38;11.43;;;12.50;99.90;;;;;;5033197;28;20056;-74
2022/10/25 01:25:40;;;;;;;22.23;11.80;;;12.50;99.90;;;;;;5034145;28;20060;-74
2022/10/25 01:28:35;;;;;;;25.27;12.88;;;12.50;99.90;;;;;;5032892;28;20036;-74
2022/10/25 01:31:11;;;;;;;23.02;11.95;;;12.60;99.90;;;;;;5018862;28;20040;-74
2022/10/25 01:33:59;;;;;;;21.83;12.20;;;12.60;99.90;;;;;;5031342;28;20041;-74
2022/10/25 01:36:40;;;;;;;24.73;12.77;;;12.60;99.90;;;;;;5033565;28;20044;-74
2022/10/25 01:39:18;;;;;;;28.15;12.63;;;12.60;99.90;;;;;;5021932;28;20040;-74
2022/10/25 01:41:57;;;;;;;23.70;12.35;;;12.60;99.90;;;;;;5028739;28;20384;-74
2022/10/25 01:44:43;;;;;;;24.33;12.00;;;12.60;99.90;;;;;;5036638;28;20045;-74
2022/10/25 01:47:12;;;;;;;23.27;11.23;;;12.60;99.90;;;;;;5033366;28;20068;-74
2022/10/25 01:49:49;;;;;;;28.85;11.93;;;12.60;99.90;;;;;;5034095;28;20060;-74
2022/10/25 01:52:20;;;;;;;21.60;10.88;;;12.70;99.90;;;;;;5035453;28;20032;-74
2022/10/25 01:54:45;;;;;;;22.58;11.48;;;12.60;99.90;;;;;;5038521;28;20041;-74
2022/10/25 01:57:30;;;;;;;24.15;11.15;;;12.70;99.90;;;;;;5019761;28;20094;-73
2022/10/25 02:00:17;;;;;;;21.73;10.13;;;12.70;99.90;;;;;;5018339;28;20053;-74
2022/10/25 02:03:01;;;;;;;22.45;11.32;;;12.70;99.90;;;;;;5036780;28;20041;-73
2022/10/25 02:06:28;;;;;;;22.48;10.93;;;12.70;99.90;;;;;;5035971;28;20049;-74
2022/10/25 02:09:35;;;;;;;20.70;10.02;;;12.70;99.90;;;;;;4936828;28;20046;-74
2022/10/25 02:12:05;;;;;;;22.15;10.75;;;12.70;99.90;;;;;;4969974;28;20065;-74
2022/10/25 02:14:56;;;;;;;19.83;10.85;;;12.70;99.90;;;;;;5035591;28;20378;-74
2022/10/25 02:17:24;;;;;;;19.77;10.32;;;12.70;99.90;;;;;;5016070;28;20171;-74
2022/10/25 02:19:55;;;;;;;23.33;10.35;;;12.70;99.90;;;;;;5005755;28;20047;-74
2022/10/25 02:22:24;;;;;;;19.88;9.95;;;12.70;99.90;;;;;;5038820;28;20053;-74
2022/10/25 02:24:52;;;;;;;23.52;9.77;;;11.80;99.90;;;;;;5049358;28;20064;-74
2022/10/25 02:27:22;;;;;;;18.85;10.02;;;12.70;99.90;;;;;;5017114;28;20037;-74
2022/10/25 02:29:49;;;;;;;19.77;10.20;;;12.70;99.90;;;;;;5023888;28;20037;-74
2022/10/25 02:32:15;;;;;;;18.15;10.20;;;12.70;99.90;;;;;;5017148;28;20051;-74
2022/10/25 02:34:40;;;;;;;18.50;9.35;;;12.70;99.90;;;;;;5014640;28;20061;-75
2022/10/25 02:37:06;;;;;;;16.48;9.40;;;12.70;99.90;;;;;;5015553;28;20045;-74
2022/10/25 02:39:33;;;;;;;17.13;8.70;;;12.70;99.90;;;;;;5031180;28;20053;-74
2022/10/25 02:42:01;;;;;;;21.02;10.23;;;12.70;99.90;;;;;;5027609;28;20071;-74
2022/10/25 02:44:28;;;;;;;19.38;10.00;;;12.80;99.90;;;;;;5032385;28;20086;-74
2022/10/25 02:46:53;;;;;;;18.25;9.35;;;12.80;99.90;;;;;;5028227;28;20495;-74
2022/10/25 02:49:19;;;;;;;19.25;10.15;;;12.80;99.90;;;;;;5040373;28;20076;-74
2022/10/25 02:51:45;;;;;;;22.50;10.50;;;12.80;99.90;;;;;;5041765;28;20136;-72
2022/10/25 02:54:10;;;;;;;19.75;10.48;;;12.90;99.90;;;;;;5010575;28;20521;-74
2022/10/25 02:56:37;;;;;;;20.95;9.90;;;12.90;99.90;;;;;;5030169;28;20568;-74
2022/10/25 02:59:03;;;;;;;16.73;9.65;;;12.90;99.90;;;;;;5002780;28;20055;-74
2022/10/25 03:01:28;;;;;;;20.48;10.52;;;12.90;99.90;;;;;;5037382;28;20487;-74
2022/10/25 03:03:54;;;;;;;19.80;9.75;;;12.90;99.90;;;;;;5040503;28;20484;-74
2022/10/25 03:06:20;;;;;;;19.30;10.38;;;12.90;99.90;;;;;;5023540;28;20514;-74
2022/10/25 03:08:46;;;;;;;19.42;10.40;;;12.90;99.90;;;;;;5051356;28;20037;-74
2022/10/25 03:11:14;;;;;;;20.52;10.50;;;12.90;99.90;;;;;;5034005;28;20090;-74
2022/10/25 03:13:41;;;;;;;17.60;10.05;;;12.90;99.90;;;;;;5021882;28;20036;-73
2022/10/25 03:16:07;;;;;;;18.38;9.73;;;12.90;99.90;;;;;;5006196;28;20487;-74
2022/10/25 03:18:32;;;;;;;18.23;9.70;;;12.90;99.90;;;;;;5041706;28;20040;-72
2022/10/25 03:21:00;;;;;;;20.73;10.75;;;12.90;99.90;;;;;;5038452;28;20052;-73
2022/10/25 03:23:26;;;;;;;18.48;10.13;;;12.90;99.90;;;;;;5042472;28;20051;-75
2022/10/25 03:25:57;;;;;;;21.02;9.52;;;12.90;99.90;;;;;;5031177;28;20112;-75
2022/10/25 03:28:23;;;;;;;17.40;9.10;;;12.80;99.90;;;;;;5029365;28;20040;-75
2022/10/25 03:30:49;;;;;;;18.13;8.93;;;12.80;99.90;;;;;;5034920;28;20270;-75
2022/10/25 03:33:16;;;;;;;18.25;9.07;;;12.80;99.90;;;;;;5031581;28;20112;-75
2022/10/25 03:35:41;;;;;;;18.20;8.75;;;12.80;99.90;;;;;;5018292;28;20171;-74
2022/10/25 03:38:07;;;;;;;16.50;8.60;;;12.80;99.90;;;;;;5037402;28;20128;-74
2022/10/25 03:40:33;;;;;;;18.70;8.20;;;12.80;99.90;;;;;;5025191;28;20059;-74
2022/10/25 03:42:59;;;;;;;18.88;8.45;;;12.80;99.90;;;;;;5010851;28;20078;-74
2022/10/25 03:45:24;;;;;;;17.27;7.65;;;12.80;99.90;;;;;;5017854;28;20119;-74
2022/10/25 03:47:50;;;;;;;19.25;8.52;;;12.80;99.90;;;;;;4994930;28;20041;-74
2022/10/25 03:50:16;;;;;;;18.48;8.80;;;12.90;99.90;;;;;;5022308;28;20041;-74
2022/10/25 03:52:42;;;;;;;16.83;7.78;;;12.90;99.90;;;;;;5033514;28;20047;-74
2022/10/25 03:55:09;;;;;;;17.27;7.68;;;12.90;99.90;;;;;;5024212;28;20040;-75
2022/10/25 03:57:35;;;;;;;14.68;7.28;;;12.80;99.90;;;;;;5042755;28;20760;-74
2022/10/25 04:00:00;;;;;;;18.73;7.45;;;12.80;99.90;;;;;;5020438;28;20041;-74
2022/10/25 04:02:27;;;;;;;16.15;7.07;;;12.80;99.90;;;;;;5032064;28;20043;-74
2022/10/25 04:04:53;;;;;;;17.40;7.50;;;12.80;99.90;;;;;;5016563;28;20052;-74
2022/10/25 04:07:19;;;;;;;21.13;7.97;;;12.80;99.90;;;;;;5042632;28;20399;-74
2022/10/25 04:09:45;;;;;;;19.55;8.65;;;12.80;99.90;;;;;;5039224;28;20044;-74
2022/10/25 04:12:11;;;;;;;18.58;8.25;;;12.80;99.90;;;;;;5014205;28;20045;-74
2022/10/25 04:14:37;;;;;;;22.77;8.85;;;12.80;99.90;;;;;;5015133;28;20040;-74
2022/10/25 04:17:03;;;;;;;18.45;9.43;;;12.80;99.90;;;;;;5034084;28;20094;-73
2022/10/25 04:19:29;;;;;;;20.48;10.13;;;11.80;99.90;;;;;;5047222;28;20036;-74
2022/10/25 04:21:54;;;;;;;19.13;9.82;;;12.80;99.90;;;;;;5034836;28;20068;-74
2022/10/25 04:24:21;;;;;;;21.55;9.70;;;12.80;99.90;;;;;;5017837;28;20147;-74
2022/10/25 04:26:47;;;;;;;18.83;9.60;;;12.80;99.90;;;;;;5049565;28;20041;-74
2022/10/25 04:29:14;;;;;;;20.35;9.60;;;12.70;99.90;;;;;;5050060;28;20048;-74
2022/10/25 04:31:40;;;;;;;21.85;9.88;;;12.70;99.90;;;;;;5016633;28;20159;-74
2022/10/25 04:34:06;;;;;;;21.08;9.82;;;12.70;99.90;;;;;;5043109;28;20120;-73
2022/10/25 04:36:32;;;;;;;20.70;9.20;;;12.70;99.90;;;;;;5019311;28;20044;-73
2022/10/25 04:38:58;;;;;;;21.60;9.65;;;12.70;99.90;;;;;;5024195;28;20041;-73
2022/10/25 04:41:23;;;;;;;22.10;10.48;;;12.60;99.90;;;;;;5036935;28;20530;-73
2022/10/25 04:43:50;;;;;;;22.67;10.38;;;12.60;99.90;;;;;;5034078;28;20123;-74
2022/10/25 04:46:16;;;;;;;24.10;9.95;;;12.60;99.90;;;;;;5038437;28;20067;-75
2022/10/25 04:48:42;;;;;;;18.02;8.95;;;12.60;99.90;;;;;;5052343;28;20466;-74
2022/10/25 04:51:10;;;;;;;21.42;9.45;;;12.60;99.90;;;;;;5039943;28;20037;-74
2022/10/25 04:53:35;;;;;;;23.15;9.68;;;12.60;99.90;;;;;;5033852;28;20055;-74
2022/10/25 04:56:06;;;;;;;21.63;9.48;;;12.60;99.90;;;;;;5009864;28;20037;-74
2022/10/25 04:58:35;;;;;;;21.08;9.15;;;11.30;99.90;;;;;;5063342;28;20040;-74
2022/10/25 05:01:07;;;;;;;17.33;8.23;;;12.60;99.90;;;;;;5014211;28;20679;-74
2022/10/25 05:03:33;;;;;;;21.10;8.53;;;12.60;99.90;;;;;;5020379;28;20591;-74
2022/10/25 05:06:13;;;;;;;19.98;8.80;;;12.60;99.90;;;;;;5018281;28;20492;-74
2022/10/25 05:08:40;;;;;;;20.80;9.38;;;12.60;99.90;;;;;;5014004;28;20033;-74
2022/10/25 05:11:07;;;;;;;22.38;8.65;;;12.60;99.90;;;;;;5021377;28;20617;-74
2022/10/25 05:13:35;;;;;;;22.90;8.63;;;12.60;99.90;;;;;;5031592;28;20037;-74
2022/10/25 05:16:01;;;;;;;25.63;9.43;;;12.60;99.90;;;;;;5033834;28;20049;-74
2022/10/25 05:18:27;;;;;;;19.98;9.18;;;12.60;99.90;;;;;;5021617;28;20045;-73
2022/10/25 05:20:55;;;;;;;23.10;9.25;;;12.60;99.90;;;;;;5014280;28;20044;-73
2022/10/25 05:23:22;;;;;;;23.77;9.73;;;12.70;99.90;;;;;;5039697;28;20092;-74
2022/10/25 05:25:48;;;;;;;24.67;9.10;;;12.70;99.90;;;;;;5030231;28;20041;-73
2022/10/25 05:28:14;;;;;;;25.50;9.23;;;12.80;99.90;;;;;;5004626;28;20067;-73
2022/10/25 05:30:41;;;;;;;20.98;8.43;;;12.70;99.90;;;;;;5031275;28;20040;-75
2022/10/25 05:33:07;;;;;;;24.67;9.52;;;12.20;99.90;;;;;;5014515;28;20118;-74
2022/10/25 05:35:33;;;;;;;24.10;9.60;;;12.80;99.90;;;;;;5030872;28;20500;-74
2022/10/25 05:37:59;;;;;;;23.95;9.43;;;12.80;99.90;;;;;;5017592;28;20045;-74
2022/10/25 05:40:28;;;;;;;25.50;9.68;;;12.80;99.90;;;;;;5016452;28;20045;-73
2022/10/25 05:42:54;;;;;;;24.90;9.98;;;12.80;99.90;;;;;;5020808;28;20026;-73
2022/10/25 05:45:19;;;;;;;24.63;9.98;;;12.80;99.90;;;;;;5040878;28;20147;-73
2022/10/25 05:47:45;;;;;;;23.02;10.77;;;12.80;99.90;;;;;;5026036;28;20053;-73
2022/10/25 05:50:11;;;;;;;26.73;10.43;;;12.90;99.90;;;;;;5044120;28;20037;-73
2022/10/25 05:52:41;;;;;;;29.15;10.70;;;12.80;99.90;;;;;;5026380;28;20025;-74
2022/10/25 05:55:08;;;;;;;25.35;10.88;;;12.90;99.90;;;;;;5042520;28;20057;-74
2022/10/25 05:57:33;;;;;;;27.70;10.35;;;12.90;99.90;;;;;;5022794;28;20026;-73
2022/10/25 05:59:59;;;;;;;28.55;10.57;;;12.90;99.90;;;;;;5028670;28;20052;-73
2022/10/25 06:02:25;;;;;;;23.02;10.27;;;12.90;99.90;;;;;;5038914;28;20140;-74
2022/10/25 06:04:51;;;;;;;22.85;10.02;;;12.90;99.90;;;;;;5062147;28;20305;-74
2022/10/25 06:07:16;;;;;;;21.45;9.45;;;12.90;99.90;;;;;;5061061;28;20052;-73
2022/10/25 06:09:42;;;;;;;24.25;9.70;;;12.90;99.90;;;;;;5043642;28;20263;-74
2022/10/25 06:12:08;;;;;;;23.80;9.40;;;12.90;99.90;;;;;;5037115;28;20066;-73
2022/10/25 06:14:34;;;;;;;26.35;9.77;;;12.80;99.90;;;;;;5062121;28;20275;-74
2022/10/25 06:17:02;;;;;;;24.45;9.10;;;12.80;99.90;;;;;;5045848;28;20036;-73
2022/10/25 06:19:28;;;;;;;23.83;9.15;;;12.80;99.90;;;;;;5044594;28;20025;-73
2022/10/25 06:21:55;;;;;;;23.98;9.00;;;12.80;99.90;;;;;;5034235;28;20025;-74
2022/10/25 06:24:20;;;;;;;21.33;8.65;;;12.80;99.90;;;;;;5024928;28;20044;-74
2022/10/25 06:26:46;;;;;;;21.67;8.85;;;12.70;99.90;;;;;;5017963;28;20176;-74
2022/10/25 06:29:12;;;;;;;20.40;8.73;;;12.70;99.90;;;;;;5019121;28;20034;-74
2022/10/25 06:31:40;;;;;;;21.95;8.73;;;12.70;99.90;;;;;;5015933;28;20033;-74
2022/10/25 06:34:06;;;;;;;19.33;9.07;;;12.70;99.90;;;;;;5043494;28;20100;-73
2022/10/25 06:36:31;;;;;;;22.10;8.68;;;12.80;99.90;;;;;;5023727;28;20029;-73
2022/10/25 06:38:58;;;;;;;21.77;8.65;;;12.80;99.90;;;;;;5028688;28;20292;-73
2022/10/25 06:41:26;;;;;;;20.92;8.45;;;12.80;99.90;;;;;;5051860;28;20080;-74
2022/10/25 06:43:53;;;;;;;21.88;9.43;;;12.80;99.90;;;;;;5043962;28;20220;-74
2022/10/25 06:46:21;;;;;;;22.77;8.80;;;12.80;99.90;;;;;;5031260;28;20026;-74
2022/10/25 06:48:48;;;;;;;17.73;8.73;;;12.70;99.90;;;;;;5056540;28;20039;-74
2022/10/25 06:51:13;;;;;;;21.00;8.70;;;12.80;99.90;;;;;;5058031;28;20264;-74
2022/10/25 06:53:39;;;;;;;24.70;8.88;;;12.80;99.90;;;;;;5060371;28;20066;-74
2022/10/25 06:56:09;;;;;;;18.42;8.00;;;12.80;99.90;;;;;;5038340;28;20017;-74
2022/10/25 06:58:36;;;;;;;22.80;8.38;;;12.80;99.90;;;;;;5041495;28;20096;-74
2022/10/25 07:01:08;;;;;;;22.42;8.60;;;12.80;99.90;;;;;;5026170;28;20313;-73
2022/10/25 07:03:34;;;;;;;19.80;8.02;;;12.80;99.90;;;;;;5043556;28;20084;-73
2022/10/25 07:06:28;;;;;;;16.83;7.00;;;12.80;99.90;;;;;;5046744;28;20124;-73
2022/10/25 07:08:56;;;;;;;21.35;7.47;;;12.90;99.90;;;;;;5042215;28;20029;-73
2022/10/25 07:11:23;;;;;;;19.42;6.78;;;12.90;99.90;;;;;;5047258;28;20060;-74
2022/10/25 07:13:52;;;;;;;17.30;6.57;;;12.90;99.90;;;;;;5034137;28;20036;-74
2022/10/25 07:16:19;;;;;;;19.02;6.63;;;12.90;99.90;;;;;;5037948;28;20059;-75
2022/10/25 07:18:46;;;;;;;18.25;6.95;;;13.00;99.90;;;;;;5045307;28;20096;-74
2022/10/25 07:21:20;;;;;;;20.88;7.10;;;12.90;99.90;;;;;;5029248;28;20406;-74
2022/10/25 07:23:47;;;;;;;17.20;6.57;;;12.90;99.90;;;;;;5027485;28;20039;-74
2022/10/25 07:26:24;;;;;;;16.65;6.78;;;12.90;99.90;;;;;;5046215;28;20025;-74
2022/10/25 07:29:09;;;;;;;20.25;6.40;;;13.00;99.90;;;;;;5062001;28;20224;-74
2022/10/25 07:31:39;;;;;;;16.95;6.00;;;13.00;99.90;;;;;;5035379;28;20043;-74
2022/10/25 07:34:12;;;;;;;17.38;6.10;;;12.90;99.90;;;;;;5064427;28;20099;-74
2022/10/25 07:36:38;;;;;;;20.30;5.88;;;12.90;99.90;;;;;;5041968;28;20247;-73
2022/10/25 07:39:03;;;;;;;18.52;6.45;;;12.90;99.90;;;;;;5072562;28;20025;-73
2022/10/25 07:41:29;;;;;;;16.13;5.60;;;12.90;99.90;;;;;;5027169;28;20040;-74
2022/10/25 07:43:55;;;;;;;19.48;6.03;;;13.00;99.90;;;;;;5038267;28;20166;-73
2022/10/25 07:46:21;;;;;;;18.83;6.22;;;13.00;99.90;;;;;;5023693;28;20322;-72
2022/10/25 07:48:51;;;;;;;17.67;6.10;;;13.10;99.90;;;;;;5034350;28;20036;-73
2022/10/25 07:51:19;;;;;;;16.25;6.28;;;13.20;99.90;;;;;;5018419;28;20043;-73
2022/10/25 07:53:46;;;;;;;19.88;5.93;;;13.10;99.90;;;;;;5034862;28;20032;-73
2022/10/25 07:56:14;;;;;;;23.10;6.70;;;13.20;99.90;;;;;;5044550;28;20038;-73
2022/10/25 07:58:39;;;;;;;20.45;6.65;;;13.20;99.90;;;;;;5049155;28;20045;-74
2022/10/25 08:01:08;;;;;;;16.90;6.18;;;13.30;99.90;;;;;;5036091;28;20036;-74
2022/10/25 08:03:39;;;;;;;21.80;6.72;;;13.30;99.90;;;;;;5055048;28;20075;-74
2022/10/25 08:06:08;;;;;;;18.33;6.10;;;13.30;99.90;;;;;;5008094;28;20033;-74
2022/10/25 08:08:35;;;;;;;22.85;6.82;;;13.40;99.90;;;;;;5027175;28;20036;-74
2022/10/25 08:11:06;;;;;;;15.27;5.28;;;13.40;99.90;;;;;;5050597;28;20224;-73
2022/10/25 08:13:36;;;;;;;16.35;5.95;;;13.40;99.90;;;;;;5064412;28;20040;-74
2022/10/25 08:16:03;;;;;;;15.43;5.38;;;13.50;99.90;;;;;;5040614;28;20082;-73
2022/10/25 08:18:29;;;;;;;17.98;6.10;;;13.50;99.90;;;;;;5034708;28;20044;-74
2022/10/25 08:20:58;;;;;;;17.92;5.43;;;14.40;99.90;;;;;;5056988;28;20029;-73
2022/10/25 08:23:24;;;;;;;16.67;5.43;;;13.60;99.90;;;;;;5056445;28;20347;-74
2022/10/25 08:25:50;;;;;;;21.15;6.50;;;13.70;99.90;;;;;;5015473;28;20101;-74
2022/10/25 08:28:16;;;;;;;18.40;5.55;;;13.70;99.90;;;;;;5063785;28;20040;-74
2022/10/25 08:30:42;;;;;;;14.75;5.38;;;13.80;99.90;;;;;;5057407;28;20040;-74
2022/10/25 08:33:08;;;;;;;19.52;5.45;;;13.80;99.90;;;;;;5038499;28;20032;-75
2022/10/25 08:35:34;;;;;;;18.88;6.15;;;13.90;99.90;;;;;;5016705;28;20025;-74
2022/10/25 08:38:01;;;;;;;16.85;5.93;;;13.90;99.90;;;;;;5061154;28;20070;-73
2022/10/25 08:41:02;;;;;;;15.93;5.28;;;13.90;99.90;;;;;;5037636;28;20061;-73
2022/10/25 08:44:04;;;;;;;15.85;5.40;;;13.90;99.90;;;;;;5028389;28;20072;-74
2022/10/25 08:46:45;;;;;;;21.83;6.32;;;13.90;99.90;;;;;;4975664;28;20035;-73
2022/10/25 08:49:28;;;;;;;15.35;5.60;;;13.90;99.90;;;;;;5036581;28;20065;-73
2022/10/25 08:51:55;;;;;;;15.30;5.57;;;13.90;99.90;;;;;;5038198;28;20052;-72
2022/10/25 08:54:26;;;;;;;27.02;6.55;;;14.00;99.90;;;;;;5043311;28;20353;-73
2022/10/25 08:57:14;;;;;;;16.75;5.20;;;14.00;99.90;;;;;;5031886;28;20056;-74
2022/10/25 08:59:41;;;;;;;18.95;5.88;;;14.10;99.90;;;;;;5043040;28;20040;-75
2022/10/25 09:02:41;;;;;;;17.50;5.82;;;14.10;99.90;;;;;;5052974;28;20088;-75
2022/10/25 09:05:31;;;;;;;15.18;5.93;;;14.30;99.90;;;;;;4981452;28;20046;-74
2022/10/25 09:08:26;;;;;;;17.70;5.53;;;14.40;99.90;;;;;;5030517;28;20061;-75
2022/10/25 09:10:52;;;;;;;16.95;6.82;;;14.40;99.90;;;;;;5003726;28;20048;-73
2022/10/25 09:13:33;;;;;;;21.17;5.90;;;14.40;99.90;;;;;;5059852;28;20038;-73
2022/10/25 09:16:15;;;;;;;19.65;6.20;;;14.40;99.90;;;;;;5057294;28;20037;-73
2022/10/25 09:18:56;;;;;;;16.23;5.87;;;14.40;99.90;;;;;;5057800;28;20075;-73
2022/10/25 09:21:36;;;;;;;18.95;6.28;;;14.40;99.90;;;;;;5040116;28;20328;-72
2022/10/25 09:24:12;;;;;;;17.15;5.90;;;14.40;99.90;;;;;;5046582;28;20068;-74
2022/10/25 09:26:41;;;;;;;18.17;6.00;;;14.50;99.90;;;;;;5060859;28;20017;-75
2022/10/25 09:29:27;;;;;;;21.05;6.53;;;14.40;99.90;;;;;;5063502;28;20276;-73
2022/10/25 09:31:57;;;;;;;17.35;6.20;;;14.40;99.90;;;;;;5050547;28;20032;-74
2022/10/25 09:34:45;;;;;;;20.77;6.47;;;14.40;99.90;;;;;;5045462;28;20089;-75
2022/10/25 09:37:19;;;;;;;18.90;5.93;;;14.40;99.90;;;;;;5042224;28;20329;-75
2022/10/25 09:39:55;;;;;;;17.08;5.78;;;14.60;99.90;;;;;;5044436;28;20033;-74
2022/10/25 09:42:33;;;;;;;18.00;5.97;;;14.70;99.90;;;;;;5042040;28;20064;-73
2022/10/25 09:45:29;;;;;;;18.35;5.70;;;14.70;99.90;;;;;;5060716;28;20029;-73
2022/10/25 09:48:24;;;;;;;15.65;5.28;;;14.70;99.90;;;;;;5058325;28;20033;-75
2022/10/25 09:50:57;;;;;;;14.35;5.10;;;14.80;99.90;;;;;;4990139;28;20324;-74
2022/10/25 09:53:23;;;;;;;18.95;5.63;;;14.80;99.90;;;;;;5032647;28;20029;-75
2022/10/25 09:56:02;;;;;;;16.85;4.95;;;14.80;99.90;;;;;;5025835;28;20042;-74
2022/10/25 09:58:38;;;;;;;18.35;5.35;;;14.80;99.90;;;;;;5027699;28;20183;-74
2022/10/25 10:01:15;;;;;;;18.55;5.40;;;14.80;99.90;;;;;;5044895;28;20040;-75
2022/10/25 10:03:41;;;;;;;12.20;4.30;;;14.80;99.90;;;;;;5049863;28;20052;-74
2022/10/25 10:06:27;;;;;;;14.13;4.50;;;14.80;99.90;;;;;;5052499;28;20277;-74
2022/10/25 10:08:59;;;;;;;16.17;4.70;;;14.90;99.90;;;;;;5031650;28;20045;-74
2022/10/25 10:11:25;;;;;;;14.07;3.97;;;14.90;99.90;;;;;;5063585;28;20039;-74
2022/10/25 10:13:59;;;;;;;14.65;3.72;;;14.90;99.90;;;;;;5058472;28;20128;-74
2022/10/25 10:16:40;;;;;;;14.32;4.38;;;14.90;99.90;;;;;;5051406;28;20040;-74
2022/10/25 10:19:20;;;;;;;15.90;3.95;;;14.80;99.90;;;;;;5045291;28;20037;-74
2022/10/25 10:21:53;;;;;;;14.23;4.22;;;14.80;99.90;;;;;;5028635;28;20192;-74
2022/10/25 10:24:29;;;;;;;;;;;14.90;99.90;;;;;;5028994;28;20040;-74
2022/10/25 10:27:05;;;;;;;16.20;4.43;;;14.80;99.90;;;;;;5045165;28;20038;-74
2022/10/25 10:29:35;;;;;;;12.60;3.53;;;14.90;99.90;;;;;;5045734;28;20098;-74
2022/10/25 10:32:20;;;;;;;14.95;3.75;;;15.00;99.90;;;;;;5032804;28;20101;-74
2022/10/25 10:34:55;;;;;;;12.45;3.50;;;15.10;99.90;;;;;;5028680;28;20082;-75
2022/10/25 10:37:23;;;;;;;15.02;3.70;;;15.20;99.90;;;;;;5034657;28;20573;-75
2022/10/25 10:40:23;;;;;;;13.32;3.05;;;15.30;99.90;;;;;;5047914;28;20233;-74
2022/10/25 10:42:48;;;;;;;12.02;3.15;;;15.40;99.90;;;;;;5028546;28;20074;-72
2022/10/25 10:45:18;;;;;;;14.35;3.38;;;15.50;99.90;;;;;;5042237;28;20103;-73
2022/10/25 10:47:55;;;;;;;13.40;3.22;;;15.60;99.90;;;;;;5056992;28;20029;-72
2022/10/25 10:50:30;;;;;;;14.25;3.20;;;15.60;99.90;;;;;;5036689;28;20033;-74
2022/10/25 10:53:05;;;;;;;15.93;3.60;;;15.70;99.90;;;;;;5049794;28;20094;-73
2022/10/25 10:55:37;;;;;;;13.53;4.23;;;15.90;99.90;;;;;;5030379;28;20263;-73
2022/10/25 10:58:15;;;;;;;18.75;5.43;;;16.00;99.90;;;;;;5051536;28;20043;-74
2022/10/25 11:00:52;;;;;;;18.33;4.13;;;16.00;99.90;;;;;;5062500;28;20117;-73
2022/10/25 11:03:36;;;;;;;14.77;3.55;;;16.00;99.90;;;;;;5065468;28;20068;-75
2022/10/25 11:06:05;;;;;;;18.95;4.93;;;16.00;99.90;;;;;;5050732;28;20044;-74
2022/10/25 11:08:31;;;;;;;13.75;3.15;;;16.10;99.90;;;;;;5082289;28;20282;-75
2022/10/25 11:11:17;;;;;;;11.82;2.47;;;16.10;99.90;;;;;;5040262;28;20052;-75
2022/10/25 11:13:57;;;;;;;12.15;2.53;;;16.00;99.90;;;;;;5029166;28;20116;-74
2022/10/25 11:16:41;;;;;;;12.82;2.55;;;16.00;99.90;;;;;;5027258;28;20033;-74
2022/10/25 11:19:18;;;;;;;12.48;2.97;;;16.00;99.90;;;;;;5062332;28;20040;-73
2022/10/25 11:21:56;;;;;;;12.88;2.80;;;16.00;99.90;;;;;;5046843;28;20075;-74
2022/10/25 11:24:49;;;;;;;8.88;2.38;;;16.00;99.90;;;;;;5045345;28;20065;-73
2022/10/25 11:27:24;;;;;;;;;;;15.80;99.90;;;;;;5046095;28;20272;-74
2022/10/25 11:30:06;;;;;;;12.63;2.72;;;15.80;99.90;;;;;;5053588;28;19983;-74
2022/10/25 11:32:54;;;;;;;12.50;2.90;;;16.50;99.90;;;;;;5044353;23;20413;-86
2022/10/25 11:35:58;;;;;;;11.98;2.38;;;15.80;99.90;;;;;;5005391;28;20037;-84
2022/10/25 11:38:36;;;;;;;;;;;15.80;99.90;;;;;;5026426;28;20470;-84
2022/10/25 11:41:31;;;;;;;12.80;2.95;;;15.80;99.90;;;;;;5011129;28;19920;-85
2022/10/25 11:44:05;;;;;;;10.82;2.83;;;15.80;99.90;;;;;;5009603;28;20041;-83
2022/10/25 11:46:52;;;;;;;12.93;2.55;;;15.80;99.90;;;;;;5025741;28;20038;-83
2022/10/25 11:49:24;;;;;;;12.25;2.78;;;15.80;99.90;;;;;;5001463;28;20465;-85
2022/10/25 11:51:58;;;;;;;13.00;3.00;;;15.90;99.90;;;;;;5010110;28;20065;-83
2022/10/25 11:54:41;;;;;;;14.98;3.67;;;15.90;99.90;;;;;;5010672;28;20298;-83
2022/10/25 11:57:40;;;;;;;9.38;2.42;;;15.90;99.90;;;;;;5009588;28;20069;-85
2022/10/25 12:00:09;;;;;;;9.85;2.40;;;16.00;99.90;;;;;;5018046;28;20233;-85
2022/10/25 12:03:12;;;;;;;13.23;2.85;;;16.10;99.90;;;;;;5025651;28;20045;-83
2022/10/25 12:05:49;;;;;;;8.80;2.67;;;16.30;99.90;;;;;;5001019;28;20081;-84
2022/10/25 12:08:27;;;;;;;12.75;2.70;;;16.50;99.90;;;;;;4991259;28;20096;-84
2022/10/25 12:11:32;;;;;;;12.27;2.72;;;16.50;99.90;;;;;;5008648;28;20045;-84
2022/10/25 12:14:03;;;;;;;11.30;2.60;;;16.40;99.90;;;;;;4994913;28;20196;-86
2022/10/25 12:16:30;;;;;;;10.98;2.53;;;16.30;99.90;;;;;;5024645;28;20395;-86
2022/10/25 12:19:18;;;;;;;13.00;2.83;;;16.20;99.90;;;;;;4996085;28;20203;-84
2022/10/25 12:21:57;;;;;;;13.55;2.65;;;16.10;99.90;;;;;;4994460;28;20042;-84
2022/10/25 12:24:32;;;;;;;8.65;2.33;;;16.10;99.90;;;;;;4991245;28;20407;-86
2022/10/25 12:26:58;;;;;;;12.98;2.63;;;16.10;99.90;;;;;;4977358;28;20135;-86
2022/10/25 12:29:36;;;;;;;8.45;2.30;;;16.20;99.90;;;;;;4980813;28;20480;-87
2022/10/25 12:32:08;;;;;;;10.05;2.45;;;16.40;99.90;;;;;;4997700;28;20085;-87
2022/10/25 12:34:53;;;;;;;12.43;2.65;;;16.40;99.90;;;;;;5010066;28;20391;-89
2022/10/25 12:37:31;;;;;;;10.77;2.40;;;16.30;99.90;;;;;;4991325;28;20139;-85
2022/10/25 12:39:56;;;;;;;10.63;2.40;;;16.20;99.90;;;;;;4992039;28;20046;-86
2022/10/25 12:42:31;;;;;;;9.73;2.22;;;16.20;99.90;;;;;;4977485;28;20049;-88
2022/10/25 12:45:22;;;;;;;11.40;2.83;;;16.20;99.90;;;;;;5009818;28;20096;-87
2022/10/25 12:48:19;;;;;;;11.57;2.42;;;16.20;99.90;;;;;;4993651;28;20092;-86
2022/10/25 12:51:26;;;;;;;7.93;1.98;;;16.20;99.90;;;;;;5012272;28;20069;-85
2022/10/25 12:54:14;;;;;;;11.48;2.53;;;16.30;99.90;;;;;;5009515;28;20045;-85
2022/10/25 12:57:05;;;;;;;10.50;2.50;;;16.40;99.90;;;;;;4993536;28;20038;-84
2022/10/25 12:59:43;;;;;;;10.65;2.40;;;16.50;99.90;;;;;;4995849;28;20046;-86
2022/10/25 13:02:20;;;;;;;8.68;2.15;;;16.60;99.90;;;;;;4989944;28;20384;-84